Time;durP1;ratioP1;P1;durP2;ratioP2;P2;SDS_P1;SDS_P2;PMS_P1;PMS_P2;Temp;Humidity;BMP_temperature;BMP_pressure;BME280_temperature;BME280_humidity;BME280_pressure;Samples;Min_cycle;Max_cycle;Signal;HPM_P1;HPM_P2
2023/05/04 00:01:43;;;;;;;3.38;3.35;;;;;;;;;;4203786;28;20232;-58
2023/05/04 00:04:03;;;;;;;3.45;3.45;;;;;;;;;;4203647;28;20059;-58
2023/05/04 00:06:24;;;;;;;3.83;3.72;;;;;;;;;;4204619;28;20060;-58
2023/05/04 00:08:44;;;;;;;3.72;3.63;;;;;;;;;;4203650;28;20048;-58
2023/05/04 00:11:05;;;;;;;4.13;4.03;;;;;;;;;;4205801;28;20043;-58
2023/05/04 00:13:25;;;;;;;3.78;3.58;;;;;;;;;;4206428;28;20412;-58
2023/05/04 00:15:46;;;;;;;3.00;2.88;;;;;;;;;;4209090;28;20051;-58
2023/05/04 00:18:06;;;;;;;3.28;3.28;;;;;;;;;;4206304;28;20043;-58
2023/05/04 00:20:26;;;;;;;3.67;3.40;;;;;;;;;;4206210;28;20102;-59
2023/05/04 00:22:46;;;;;;;3.47;3.47;;;;;;;;;;4207441;28;20044;-58
2023/05/04 00:25:07;;;;;;;3.05;3.05;;;;;;;;;;4206773;28;20235;-59
2023/05/04 00:27:27;;;;;;;3.20;3.17;;;;;;;;;;4207328;28;20374;-58
2023/05/04 00:29:47;;;;;;;3.55;3.55;;;;;;;;;;4206395;28;20036;-58
2023/05/04 00:32:09;;;;;;;3.03;2.92;;;;;;;;;;4207407;28;20059;-58
2023/05/04 00:34:32;;;;;;;2.85;2.75;;;;;;;;;;4197052;28;20083;-58
2023/05/04 00:36:53;;;;;;;2.63;2.63;;;;;;;;;;4207181;28;20059;-58
2023/05/04 00:39:13;;;;;;;2.58;2.47;;;;;;;;;;4207237;28;20089;-58
2023/05/04 00:41:33;;;;;;;3.05;3.05;;;;;;;;;;4192074;28;20098;-58
2023/05/04 00:43:53;;;;;;;2.75;2.75;;;;;;;;;;4206406;28;20090;-58
2023/05/04 00:46:13;;;;;;;2.55;2.45;;;;;;;;;;4205803;28;20090;-58
2023/05/04 00:48:34;;;;;;;3.20;3.00;;;;;;;;;;4207139;28;20244;-58
2023/05/04 00:50:54;;;;;;;2.35;2.35;;;;;;;;;;4206961;28;20056;-58
2023/05/04 00:53:15;;;;;;;3.20;3.20;;;;;;;;;;4206959;28;20158;-58
2023/05/04 00:55:41;;;;;;;3.88;3.78;;;;;;;;;;4206884;28;20043;-58
2023/05/04 00:58:02;;;;;;;4.68;4.47;;;;;;;;;;4206142;28;20090;-58
2023/05/04 01:00:22;;;;;;;4.22;4.15;;;;;;;;;;4206924;28;20062;-58
2023/05/04 01:02:42;;;;;;;3.30;3.30;;;;;;;;;;4205517;28;20059;-58
2023/05/04 01:05:03;;;;;;;4.60;4.50;;;;;;;;;;4205952;28;20060;-58
2023/05/04 01:07:34;;;;;;;4.30;4.00;;;;;;;;;;4206843;28;20039;-58
2023/05/04 01:10:15;;;;;;;4.30;4.20;;;;;;;;;;4207124;28;20048;-59
2023/05/04 01:12:47;;;;;;;4.15;4.15;;;;;;;;;;4206720;28;20048;-58
2023/05/04 01:15:11;;;;;;;4.50;4.40;;;;;;;;;;4207192;28;20333;-59
2023/05/04 01:17:32;;;;;;;4.25;4.15;;;;;;;;;;4206433;28;20521;-58
2023/05/04 01:19:52;;;;;;;4.22;4.03;;;;;;;;;;4207204;28;20361;-58
2023/05/04 01:22:12;;;;;;;3.00;3.00;;;;;;;;;;4205423;28;20054;-58
2023/05/04 01:24:33;;;;;;;3.33;3.30;;;;;;;;;;4207119;28;20062;-58
2023/05/04 01:26:56;;;;;;;3.88;3.80;;;;;;;;;;4205931;28;20104;-58
2023/05/04 01:29:18;;;;;;;4.32;3.05;;;;;;;;;;4206958;28;20056;-58
2023/05/04 01:31:39;;;;;;;3.90;3.80;;;;;;;;;;4206985;28;20051;-58
2023/05/04 01:34:00;;;;;;;3.13;3.13;;;;;;;;;;4206944;28;20278;-58
2023/05/04 01:36:20;;;;;;;4.07;3.88;;;;;;;;;;4206610;28;20071;-58
2023/05/04 01:38:41;;;;;;;5.00;4.75;;;;;;;;;;4205353;28;20070;-58
2023/05/04 01:41:01;;;;;;;3.75;3.65;;;;;;;;;;4206935;28;20055;-58
2023/05/04 01:43:22;;;;;;;3.58;3.47;;;;;;;;;;4206869;28;20059;-58
2023/05/04 01:45:42;;;;;;;3.15;3.13;;;;;;;;;;4205936;28;20062;-58
2023/05/04 01:48:03;;;;;;;2.75;2.75;;;;;;;;;;4206868;28;20051;-58
2023/05/04 01:50:23;;;;;;;3.85;3.75;;;;;;;;;;4205256;28;20117;-58
2023/05/04 01:52:43;;;;;;;2.90;2.90;;;;;;;;;;4206408;28;20083;-58
2023/05/04 01:55:03;;;;;;;3.08;3.08;;;;;;;;;;4205243;28;20112;-58
2023/05/04 01:57:23;;;;;;;4.20;4.10;;;;;;;;;;4205666;28;20082;-58
2023/05/04 01:59:43;;;;;;;3.47;3.42;;;;;;;;;;4206616;28;20108;-58
2023/05/04 02:02:03;;;;;;;3.22;2.83;;;;;;;;;;4205989;28;20091;-58
2023/05/04 02:04:24;;;;;;;3.10;3.10;;;;;;;;;;4206721;28;20080;-58
2023/05/04 02:06:44;;;;;;;3.50;3.20;;;;;;;;;;4206583;28;20382;-58
2023/05/04 02:09:04;;;;;;;3.28;3.17;;;;;;;;;;4206444;28;20043;-58
2023/05/04 02:11:25;;;;;;;3.35;3.13;;;;;;;;;;4206572;28;20070;-58
2023/05/04 02:13:45;;;;;;;3.72;3.42;;;;;;;;;;4205997;28;20135;-58
2023/05/04 02:16:05;;;;;;;3.05;3.05;;;;;;;;;;4192396;28;20240;-58
2023/05/04 02:18:26;;;;;;;2.58;2.58;;;;;;;;;;4205933;28;20079;-58
2023/05/04 02:20:46;;;;;;;3.42;3.15;;;;;;;;;;4206003;28;20098;-58
2023/05/04 02:23:06;;;;;;;3.22;3.17;;;;;;;;;;4205190;28;20085;-58
2023/05/04 02:25:26;;;;;;;3.42;3.42;;;;;;;;;;4205174;28;20106;-58
2023/05/04 02:27:47;;;;;;;3.90;3.70;;;;;;;;;;4205752;28;20047;-58
2023/05/04 02:30:07;;;;;;;3.35;3.25;;;;;;;;;;4205395;28;20044;-58
2023/05/04 02:32:27;;;;;;;3.35;3.10;;;;;;;;;;4204602;28;20070;-58
2023/05/04 02:34:48;;;;;;;2.95;2.95;;;;;;;;;;4206171;28;20043;-58
2023/05/04 02:37:08;;;;;;;3.38;3.25;;;;;;;;;;4205891;28;20055;-58
2023/05/04 02:39:28;;;;;;;2.97;2.97;;;;;;;;;;4204668;28;20120;-57
2023/05/04 02:41:48;;;;;;;2.97;2.95;;;;;;;;;;4205735;28;20047;-58
2023/05/04 02:44:09;;;;;;;3.33;3.08;;;;;;;;;;4205496;28;20136;-58
2023/05/04 02:46:30;;;;;;;4.07;3.97;;;;;;;;;;4205251;28;20389;-58
2023/05/04 02:48:50;;;;;;;4.07;3.85;;;;;;;;;;4206049;28;20048;-58
2023/05/04 02:51:10;;;;;;;3.90;3.67;;;;;;;;;;4204940;28;20142;-58
2023/05/04 02:53:30;;;;;;;4.70;4.60;;;;;;;;;;4205800;28;20355;-58
2023/05/04 02:55:51;;;;;;;4.20;4.00;;;;;;;;;;4204741;28;20078;-58
2023/05/04 02:58:11;;;;;;;3.55;3.40;;;;;;;;;;4204552;28;20098;-58
2023/05/04 03:00:31;;;;;;;4.25;4.03;;;;;;;;;;4205740;28;20051;-58
2023/05/04 03:02:52;;;;;;;3.58;3.55;;;;;;;;;;4205822;28;20076;-58
2023/05/04 03:05:12;;;;;;;4.35;4.35;;;;;;;;;;4205775;28;20047;-58
2023/05/04 03:07:32;;;;;;;3.88;3.78;;;;;;;;;;4205460;28;20246;-58
2023/05/04 03:09:52;;;;;;;3.42;3.33;;;;;;;;;;4205679;28;20043;-59
2023/05/04 03:12:12;;;;;;;3.28;3.25;;;;;;;;;;4210537;28;20047;-58
2023/05/04 03:14:32;;;;;;;4.13;4.13;;;;;;;;;;4205229;28;20071;-58
2023/05/04 03:16:52;;;;;;;3.70;3.53;;;;;;;;;;4205205;28;20071;-58
2023/05/04 03:19:12;;;;;;;4.53;4.50;;;;;;;;;;4205021;28;20070;-58
2023/05/04 03:21:32;;;;;;;4.60;4.57;;;;;;;;;;4205582;28;20048;-58
2023/05/04 03:23:52;;;;;;;4.45;4.35;;;;;;;;;;4205512;28;20052;-58
2023/05/04 03:26:12;;;;;;;4.65;4.53;;;;;;;;;;4205298;28;20098;-58
2023/05/04 03:28:33;;;;;;;4.00;3.80;;;;;;;;;;4204487;28;20109;-58
2023/05/04 03:30:53;;;;;;;4.10;4.00;;;;;;;;;;4205462;28;20107;-58
2023/05/04 03:33:13;;;;;;;4.05;3.85;;;;;;;;;;4204755;28;20050;-58
2023/05/04 03:35:34;;;;;;;3.90;3.80;;;;;;;;;;4204810;28;20056;-58
2023/05/04 03:37:54;;;;;;;4.78;4.68;;;;;;;;;;4204216;28;20366;-58
2023/05/04 03:40:14;;;;;;;4.53;4.43;;;;;;;;;;4204712;28;20286;-58
2023/05/04 03:42:36;;;;;;;4.43;4.32;;;;;;;;;;4205375;28;20047;-58
2023/05/04 03:44:57;;;;;;;3.83;3.77;;;;;;;;;;4205025;28;20048;-59
2023/05/04 03:47:17;;;;;;;3.67;3.58;;;;;;;;;;4208007;28;20073;-58
2023/05/04 03:49:37;;;;;;;4.70;4.60;;;;;;;;;;4207042;28;20111;-58
2023/05/04 03:51:57;;;;;;;4.57;4.55;;;;;;;;;;4208257;28;20078;-58
2023/05/04 03:54:17;;;;;;;4.45;4.35;;;;;;;;;;4208005;28;20147;-58
2023/05/04 03:56:37;;;;;;;5.28;5.18;;;;;;;;;;4208390;28;20067;-59
2023/05/04 03:58:58;;;;;;;4.80;4.70;;;;;;;;;;4208529;28;20077;-58
2023/05/04 04:01:18;;;;;;;3.53;3.53;;;;;;;;;;4207970;28;20081;-58
2023/05/04 04:03:39;;;;;;;4.20;4.10;;;;;;;;;;4207842;28;20111;-58
2023/05/04 04:06:00;;;;;;;4.38;4.28;;;;;;;;;;4208020;28;20066;-58
2023/05/04 04:08:21;;;;;;;5.18;4.97;;;;;;;;;;4207819;28;20043;-58
2023/05/04 04:10:41;;;;;;;4.35;4.13;;;;;;;;;;4207381;28;20115;-58
2023/05/04 04:13:02;;;;;;;3.95;3.88;;;;;;;;;;4208017;28;20047;-58
2023/05/04 04:15:22;;;;;;;4.88;4.85;;;;;;;;;;4207029;28;20381;-58
2023/05/04 04:17:44;;;;;;;4.00;3.90;;;;;;;;;;4207952;28;20270;-59
2023/05/04 04:20:04;;;;;;;4.35;4.28;;;;;;;;;;4207025;28;20043;-58
2023/05/04 04:22:26;;;;;;;4.15;3.80;;;;;;;;;;4206874;28;20083;-58
2023/05/04 04:24:46;;;;;;;4.60;4.60;;;;;;;;;;4207503;28;20077;-58
2023/05/04 04:27:06;;;;;;;4.75;4.40;;;;;;;;;;4207816;28;20067;-59
2023/05/04 04:29:26;;;;;;;4.53;4.10;;;;;;;;;;4206614;28;20063;-59
2023/05/04 04:31:46;;;;;;;3.80;3.80;;;;;;;;;;4207766;28;20047;-58
2023/05/04 04:34:06;;;;;;;4.82;4.72;;;;;;;;;;4207471;28;20052;-58
2023/05/04 04:36:27;;;;;;;7.55;5.45;;;;;;;;;;4207150;28;20454;-58
2023/05/04 04:38:47;;;;;;;3.83;3.72;;;;;;;;;;4207521;28;20108;-58
2023/05/04 04:41:07;;;;;;;4.75;4.65;;;;;;;;;;4207670;28;20051;-58
2023/05/04 04:43:27;;;;;;;4.53;4.13;;;;;;;;;;4207688;28;20059;-59
2023/05/04 04:45:48;;;;;;;4.75;4.60;;;;;;;;;;4207517;28;20068;-58
2023/05/04 04:48:08;;;;;;;4.68;4.30;;;;;;;;;;4206203;28;20108;-58
2023/05/04 04:50:28;;;;;;;5.05;4.85;;;;;;;;;;4207281;28;20329;-58
2023/05/04 04:52:48;;;;;;;5.38;5.03;;;;;;;;;;4207509;28;20081;-59
2023/05/04 04:55:09;;;;;;;4.82;4.63;;;;;;;;;;4206164;28;20059;-59
2023/05/04 04:57:29;;;;;;;4.43;4.10;;;;;;;;;;4203652;28;20067;-59
2023/05/04 04:59:54;;;;;;;5.40;5.15;;;;;;;;;;4207371;28;20075;-59
2023/05/04 05:02:14;;;;;;;5.43;5.32;;;;;;;;;;4206676;28;20055;-59
2023/05/04 05:04:36;;;;;;;5.53;5.38;;;;;;;;;;4206198;28;20094;-59
2023/05/04 05:06:57;;;;;;;4.50;4.40;;;;;;;;;;4205611;28;20067;-59
2023/05/04 05:09:17;;;;;;;4.78;4.45;;;;;;;;;;4207148;28;20365;-58
2023/05/04 05:11:37;;;;;;;4.75;4.65;;;;;;;;;;4193189;28;20063;-59
2023/05/04 05:13:58;;;;;;;4.63;4.53;;;;;;;;;;4206091;28;20235;-60
2023/05/04 05:16:18;;;;;;;4.93;4.82;;;;;;;;;;4207212;28;20050;-61
2023/05/04 05:18:38;;;;;;;4.90;4.80;;;;;;;;;;4207184;28;20337;-61
2023/05/04 05:20:59;;;;;;;5.50;5.22;;;;;;;;;;4206812;28;20063;-60
2023/05/04 05:23:19;;;;;;;5.15;5.05;;;;;;;;;;4206579;28;20093;-61
2023/05/04 05:25:40;;;;;;;6.28;6.18;;;;;;;;;;4207120;28;20083;-61
2023/05/04 05:28:01;;;;;;;5.13;5.03;;;;;;;;;;4206224;28;20151;-60
2023/05/04 05:30:21;;;;;;;4.70;4.60;;;;;;;;;;4206207;28;20079;-61
2023/05/04 05:32:41;;;;;;;5.45;5.22;;;;;;;;;;4206061;28;20048;-60
2023/05/04 05:35:03;;;;;;;5.00;4.75;;;;;;;;;;4206348;28;20117;-60
2023/05/04 05:37:23;;;;;;;5.68;5.32;;;;;;;;;;4205828;28;20062;-60
2023/05/04 05:39:43;;;;;;;4.72;4.65;;;;;;;;;;4206230;28;20056;-60
2023/05/04 05:42:04;;;;;;;6.07;5.72;;;;;;;;;;4205425;28;20051;-61
2023/05/04 05:44:25;;;;;;;5.70;5.50;;;;;;;;;;4206939;28;20106;-60
2023/05/04 05:46:45;;;;;;;4.45;4.35;;;;;;;;;;4206645;28;20220;-60
2023/05/04 05:49:06;;;;;;;4.50;4.30;;;;;;;;;;4206770;28;20354;-60
2023/05/04 05:51:26;;;;;;;4.15;4.00;;;;;;;;;;4206376;28;20063;-61
2023/05/04 05:53:47;;;;;;;3.25;3.20;;;;;;;;;;4206596;28;20074;-60
2023/05/04 05:56:07;;;;;;;5.47;5.20;;;;;;;;;;4203525;28;20247;-61
2023/05/04 05:58:27;;;;;;;5.82;5.47;;;;;;;;;;4205155;28;20050;-61
2023/05/04 06:00:47;;;;;;;4.25;4.15;;;;;;;;;;4205746;28;20047;-61
2023/05/04 06:03:07;;;;;;;5.18;5.07;;;;;;;;;;4206602;28;20327;-61
2023/05/04 06:05:27;;;;;;;4.80;4.60;;;;;;;;;;4205785;28;20358;-61
2023/05/04 06:07:48;;;;;;;4.57;4.57;;;;;;;;;;4205781;28;20147;-60
2023/05/04 06:10:08;;;;;;;5.15;4.93;;;;;;;;;;4206490;28;20079;-60
2023/05/04 06:12:28;;;;;;;5.95;5.53;;;;;;;;;;4206531;28;20355;-61
2023/05/04 06:14:49;;;;;;;4.28;4.18;;;;;;;;;;4205118;28;20090;-61
2023/05/04 06:17:09;;;;;;;5.18;4.97;;;;;;;;;;4205470;28;20056;-61
2023/05/04 06:19:30;;;;;;;3.97;3.97;;;;;;;;;;4206350;28;20109;-61
2023/05/04 06:21:51;;;;;;;4.57;4.38;;;;;;;;;;4206340;28;20048;-61
2023/05/04 06:24:12;;;;;;;6.80;6.50;;;;;;;;;;4206147;28;20091;-61
2023/05/04 06:26:32;;;;;;;5.63;5.53;;;;;;;;;;4205948;28;20393;-61
2023/05/04 06:28:52;;;;;;;5.28;4.88;;;;;;;;;;4206359;28;20043;-61
2023/05/04 06:31:13;;;;;;;4.30;4.20;;;;;;;;;;4206193;28;20056;-60
2023/05/04 06:33:33;;;;;;;5.10;4.78;;;;;;;;;;4205541;28;20397;-61
2023/05/04 06:35:53;;;;;;;5.30;4.97;;;;;;;;;;4205179;28;20109;-61
2023/05/04 06:38:13;;;;;;;5.93;5.53;;;;;;;;;;4206087;28;20135;-60
2023/05/04 06:40:34;;;;;;;4.65;4.50;;;;;;;;;;4205947;28;20112;-61
2023/05/04 06:42:54;;;;;;;3.97;3.60;;;;;;;;;;4205095;28;20108;-60
2023/05/04 06:45:15;;;;;;;4.53;4.28;;;;;;;;;;4205918;28;20047;-61
2023/05/04 06:47:36;;;;;;;3.08;3.08;;;;;;;;;;4205782;28;20291;-61
2023/05/04 06:49:57;;;;;;;4.32;4.00;;;;;;;;;;4205848;28;20111;-61
2023/05/04 06:52:17;;;;;;;3.33;3.30;;;;;;;;;;4202613;28;20063;-61
2023/05/04 06:54:38;;;;;;;3.08;3.08;;;;;;;;;;4204807;28;20274;-61
2023/05/04 06:56:59;;;;;;;3.00;3.00;;;;;;;;;;4205938;28;20051;-61
2023/05/04 06:59:19;;;;;;;3.60;3.00;;;;;;;;;;4205251;28;20124;-61
2023/05/04 07:01:40;;;;;;;2.83;2.83;;;;;;;;;;4204850;28;20434;-61
2023/05/04 07:04:00;;;;;;;1.83;1.83;;;;;;;;;;4203572;28;20104;-61
2023/05/04 07:06:20;;;;;;;2.75;2.60;;;;;;;;;;4205821;28;20318;-61
2023/05/04 07:08:41;;;;;;;3.25;2.97;;;;;;;;;;4205147;28;20082;-61
2023/05/04 07:11:01;;;;;;;3.03;2.75;;;;;;;;;;4203809;28;20059;-61
2023/05/04 07:13:21;;;;;;;2.28;2.28;;;;;;;;;;4202633;28;20367;-61
2023/05/04 07:15:41;;;;;;;2.55;2.55;;;;;;;;;;4205306;28;20047;-61
2023/05/04 07:18:02;;;;;;;2.10;2.10;;;;;;;;;;4203918;28;20107;-61
2023/05/04 07:20:22;;;;;;;1.45;1.45;;;;;;;;;;4201936;28;20086;-61
2023/05/04 07:22:46;;;;;;;1.65;1.65;;;;;;;;;;4202300;28;20056;-61
2023/05/04 07:25:06;;;;;;;1.55;1.55;;;;;;;;;;4205502;28;20070;-61
2023/05/04 07:27:27;;;;;;;1.60;1.40;;;;;;;;;;4205436;28;20075;-61
2023/05/04 07:29:47;;;;;;;1.30;1.30;;;;;;;;;;4205619;28;20043;-61
2023/05/04 07:32:07;;;;;;;1.58;1.58;;;;;;;;;;4205488;28;20043;-61
2023/05/04 07:34:27;;;;;;;1.20;1.20;;;;;;;;;;4205152;28;20055;-61
2023/05/04 07:37:05;;;;;;;1.10;1.10;;;;;;;;;;4205142;28;20162;-61
2023/05/04 07:39:25;;;;;;;1.58;1.48;;;;;;;;;;4204250;28;20040;-61
2023/05/04 07:41:45;;;;;;;1.25;1.25;;;;;;;;;;4205255;28;20063;-61
2023/05/04 07:44:10;;;;;;;1.30;1.30;;;;;;;;;;4204467;28;20071;-61
2023/05/04 07:46:30;;;;;;;1.20;1.20;;;;;;;;;;4205407;28;20051;-61
2023/05/04 07:48:50;;;;;;;1.13;1.10;;;;;;;;;;4205484;28;20070;-61
2023/05/04 07:51:15;;;;;;;1.30;1.20;;;;;;;;;;4204712;28;20224;-61
2023/05/04 07:53:35;;;;;;;1.13;1.13;;;;;;;;;;4204772;28;20055;-61
2023/05/04 07:55:59;;;;;;;1.20;1.20;;;;;;;;;;4205351;28;20083;-61
2023/05/04 07:58:19;;;;;;;1.10;1.10;;;;;;;;;;4205008;28;20055;-62
2023/05/04 08:00:40;;;;;;;1.20;1.20;;;;;;;;;;4204941;28;20359;-61
2023/05/04 08:03:01;;;;;;;1.10;1.10;;;;;;;;;;4205236;28;20079;-61
2023/05/04 08:05:21;;;;;;;1.33;1.23;;;;;;;;;;4205178;28;20043;-61
2023/05/04 08:07:41;;;;;;;1.10;1.10;;;;;;;;;;4204714;28;20112;-61
2023/05/04 08:10:01;;;;;;;2.15;1.10;;;;;;;;;;4205116;28;20044;-62
2023/05/04 08:12:23;;;;;;;2.25;1.20;;;;;;;;;;4205079;28;20043;-61
2023/05/04 08:14:46;;;;;;;1.67;1.67;;;;;;;;;;4205066;28;20324;-62
2023/05/04 08:17:06;;;;;;;1.20;1.10;;;;;;;;;;4205038;28;20047;-61
2023/05/04 08:19:26;;;;;;;1.05;1.00;;;;;;;;;;4204988;28;20239;-62
2023/05/04 08:21:46;;;;;;;1.10;1.10;;;;;;;;;;4205011;28;20374;-61
2023/05/04 08:24:06;;;;;;;1.00;1.00;;;;;;;;;;4204994;28;20082;-61
2023/05/04 08:26:26;;;;;;;1.45;1.00;;;;;;;;;;4204683;28;20067;-61
2023/05/04 08:28:47;;;;;;;1.85;1.25;;;;;;;;;;4204906;28;20078;-61
2023/05/04 08:31:08;;;;;;;1.35;1.27;;;;;;;;;;4205312;28;20089;-61
2023/05/04 08:33:28;;;;;;;1.63;1.10;;;;;;;;;;4207714;28;20051;-61
2023/05/04 08:35:48;;;;;;;3.90;1.08;;;;;;;;;;4207140;28;20094;-62
2023/05/04 08:38:09;;;;;;;2.42;1.10;;;;;;;;;;4207564;28;20358;-61
2023/05/04 08:40:29;;;;;;;0.93;0.93;;;;;;;;;;4207658;28;20113;-61
2023/05/04 08:42:51;;;;;;;1.00;1.00;;;;;;;;;;4206959;28;20082;-61
2023/05/04 08:45:11;;;;;;;1.05;1.05;;;;;;;;;;4207657;28;20086;-61
2023/05/04 08:47:31;;;;;;;1.10;1.10;;;;;;;;;;4207236;28;20047;-62
2023/05/04 08:49:55;;;;;;;1.10;1.10;;;;;;;;;;4207659;28;20075;-61
2023/05/04 08:52:16;;;;;;;1.00;1.00;;;;;;;;;;4207390;28;20055;-62
2023/05/04 08:54:38;;;;;;;1.10;1.00;;;;;;;;;;4207464;28;20078;-61
2023/05/04 08:56:59;;;;;;;0.95;0.95;;;;;;;;;;4207213;28;20043;-61
2023/05/04 08:59:20;;;;;;;1.10;1.10;;;;;;;;;;4207116;28;20377;-61
2023/05/04 09:01:41;;;;;;;1.00;1.00;;;;;;;;;;4207096;28;20083;-62
2023/05/04 09:04:02;;;;;;;1.00;1.00;;;;;;;;;;4206752;28;20044;-62
2023/05/04 09:06:22;;;;;;;1.50;1.00;;;;;;;;;;4206678;28;20408;-62
2023/05/04 09:08:43;;;;;;;1.40;0.90;;;;;;;;;;4207190;28;20043;-62
2023/05/04 09:11:04;;;;;;;1.00;1.00;;;;;;;;;;4207036;28;20243;-62
2023/05/04 09:13:25;;;;;;;0.90;0.90;;;;;;;;;;4206396;28;20071;-62
2023/05/04 09:15:54;;;;;;;1.05;0.90;;;;;;;;;;4206186;28;20047;-62
2023/05/04 09:18:15;;;;;;;0.90;0.90;;;;;;;;;;4204864;28;20365;-61
2023/05/04 09:20:48;;;;;;;0.90;0.90;;;;;;;;;;4207256;28;20085;-62
2023/05/04 09:23:08;;;;;;;1.10;1.10;;;;;;;;;;4206087;28;20108;-61
2023/05/04 09:25:29;;;;;;;1.80;0.93;;;;;;;;;;4211958;28;20052;-62
2023/05/04 09:27:53;;;;;;;0.98;0.98;;;;;;;;;;4206386;28;20063;-61
2023/05/04 09:30:13;;;;;;;0.90;0.90;;;;;;;;;;4206766;28;20067;-62
2023/05/04 09:32:46;;;;;;;0.90;0.90;;;;;;;;;;4207090;28;20075;-61
2023/05/04 09:35:07;;;;;;;0.98;0.98;;;;;;;;;;4206098;28;20044;-62
2023/05/04 09:37:29;;;;;;;1.02;0.98;;;;;;;;;;4207103;28;20044;-61
2023/05/04 09:39:58;;;;;;;0.90;0.90;;;;;;;;;;4206911;28;20367;-62
2023/05/04 09:42:19;;;;;;;0.80;0.80;;;;;;;;;;4205175;28;20121;-62
2023/05/04 09:44:39;;;;;;;1.00;0.90;;;;;;;;;;4206402;28;20043;-62
2023/05/04 09:47:00;;;;;;;1.45;0.90;;;;;;;;;;4206862;28;20362;-62
2023/05/04 09:49:31;;;;;;;0.90;0.90;;;;;;;;;;4206634;28;20071;-62
2023/05/04 09:51:51;;;;;;;1.50;0.90;;;;;;;;;;4206440;28;20091;-62
2023/05/04 09:54:12;;;;;;;0.90;0.90;;;;;;;;;;4206729;28;20471;-62
2023/05/04 09:56:37;;;;;;;0.98;0.90;;;;;;;;;;4206727;28;20083;-62
2023/05/04 09:58:58;;;;;;;0.98;0.90;;;;;;;;;;4205612;28;20235;-62
2023/05/04 10:01:19;;;;;;;0.90;0.90;;;;;;;;;;4206510;28;20231;-62
2023/05/04 10:03:41;;;;;;;1.00;1.00;;;;;;;;;;4206331;28;20104;-62
2023/05/04 10:06:05;;;;;;;0.80;0.80;;;;;;;;;;4206691;28;20067;-62
2023/05/04 10:08:27;;;;;;;0.80;0.80;;;;;;;;;;4206582;28;20082;-62
2023/05/04 10:10:48;;;;;;;1.05;1.00;;;;;;;;;;4205200;28;20059;-62
2023/05/04 10:13:08;;;;;;;1.05;0.88;;;;;;;;;;4205954;28;20374;-62
2023/05/04 10:15:29;;;;;;;0.80;0.80;;;;;;;;;;4204662;28;20039;-62
2023/05/04 10:17:50;;;;;;;1.23;1.23;;;;;;;;;;4205747;28;20098;-62
2023/05/04 10:20:46;;;;;;;1.33;0.90;;;;;;;;;;4194872;28;20099;-62
2023/05/04 10:23:15;;;;;;;0.90;0.90;;;;;;;;;;4175307;28;20139;-62
2023/05/04 10:25:35;;;;;;;0.82;0.82;;;;;;;;;;4180051;28;20268;-62
2023/05/04 10:28:15;;;;;;;0.80;0.80;;;;;;;;;;4178187;28;20129;-62
2023/05/04 10:30:38;;;;;;;0.90;0.90;;;;;;;;;;4176476;28;20064;-62
2023/05/04 10:33:00;;;;;;;0.90;0.90;;;;;;;;;;4180399;28;20186;-62
2023/05/04 10:35:21;;;;;;;;;;;;;;;;;;4175020;28;20076;-62
2023/05/04 10:37:49;;;;;;;0.90;0.90;;;;;;;;;;4175802;28;20507;-62
2023/05/04 10:40:10;;;;;;;0.90;0.90;;;;;;;;;;4180266;28;20098;-61
2023/05/04 10:42:40;;;;;;;0.90;0.90;;;;;;;;;;4174500;28;20403;-62
2023/05/04 10:45:00;;;;;;;0.80;0.80;;;;;;;;;;4175559;28;20152;-62
2023/05/04 10:47:31;;;;;;;0.80;0.80;;;;;;;;;;4177314;28;20252;-62
2023/05/04 10:50:00;;;;;;;2.17;0.90;;;;;;;;;;4177680;28;20080;-62
2023/05/04 10:52:20;;;;;;;0.80;0.80;;;;;;;;;;4181140;28;20044;-62
2023/05/04 10:54:41;;;;;;;0.80;0.80;;;;;;;;;;4176220;28;20079;-62
2023/05/04 10:57:09;;;;;;;0.88;0.80;;;;;;;;;;4190280;28;20100;-62
2023/05/04 10:59:29;;;;;;;0.80;0.80;;;;;;;;;;4204677;28;20086;-62
2023/05/04 11:01:50;;;;;;;1.05;0.80;;;;;;;;;;4205929;28;20262;-61
2023/05/04 11:04:21;;;;;;;0.80;0.80;;;;;;;;;;4205704;28;20055;-62
2023/05/04 11:06:41;;;;;;;0.77;0.77;;;;;;;;;;4205810;28;20043;-60
2023/05/04 11:09:01;;;;;;;1.20;0.80;;;;;;;;;;4205510;28;20046;-62
2023/05/04 11:11:23;;;;;;;1.10;1.00;;;;;;;;;;4205389;28;20079;-61
2023/05/04 11:13:46;;;;;;;1.55;0.80;;;;;;;;;;4189419;28;20103;-62
2023/05/04 11:16:06;;;;;;;0.80;0.80;;;;;;;;;;4205357;28;20087;-62
2023/05/04 11:18:31;;;;;;;0.80;0.80;;;;;;;;;;4205482;28;20239;-62
2023/05/04 11:20:51;;;;;;;0.80;0.80;;;;;;;;;;4204842;28;20093;-62
2023/05/04 11:23:15;;;;;;;1.65;0.80;;;;;;;;;;4205588;28;20044;-62
2023/05/04 11:25:36;;;;;;;0.90;0.90;;;;;;;;;;4205468;28;20063;-62
2023/05/04 11:27:57;;;;;;;0.80;0.80;;;;;;;;;;4205288;28;20254;-62
2023/05/04 11:30:17;;;;;;;2.75;0.70;;;;;;;;;;4205609;28;20046;-62
2023/05/04 11:32:41;;;;;;;0.75;0.75;;;;;;;;;;4205564;28;20047;-61
2023/05/04 11:35:02;;;;;;;0.70;0.70;;;;;;;;;;4205526;28;20060;-62
2023/05/04 11:37:23;;;;;;;2.83;0.70;;;;;;;;;;4204788;28;20094;-62
2023/05/04 11:39:43;;;;;;;0.70;0.70;;;;;;;;;;4203308;28;20076;-62
2023/05/04 11:42:10;;;;;;;0.60;0.60;;;;;;;;;;4205461;28;20044;-61
2023/05/04 11:44:30;;;;;;;0.80;0.70;;;;;;;;;;4204101;28;20059;-61
2023/05/04 11:46:51;;;;;;;0.70;0.70;;;;;;;;;;4205453;28;20299;-61
2023/05/04 11:49:11;;;;;;;1.65;0.80;;;;;;;;;;4204172;28;20247;-61
2023/05/04 11:51:32;;;;;;;0.70;0.70;;;;;;;;;;4205388;28;20108;-60
2023/05/04 11:53:53;;;;;;;0.70;0.70;;;;;;;;;;4205256;28;20083;-61
2023/05/04 11:56:13;;;;;;;0.73;0.70;;;;;;;;;;4205144;28;20098;-60
2023/05/04 11:58:33;;;;;;;0.73;0.70;;;;;;;;;;4204907;28;20047;-61
2023/05/04 12:00:57;;;;;;;0.70;0.70;;;;;;;;;;4204890;28;20052;-61
2023/05/04 12:03:26;;;;;;;0.70;0.70;;;;;;;;;;4189308;28;20048;-61
2023/05/04 12:05:56;;;;;;;0.70;0.70;;;;;;;;;;4205234;28;20043;-60
2023/05/04 12:08:40;;;;;;;0.70;0.70;;;;;;;;;;4208030;28;20289;-61
2023/05/04 12:11:10;;;;;;;0.80;0.80;;;;;;;;;;4207055;28;20056;-61
2023/05/04 12:13:30;;;;;;;0.70;0.70;;;;;;;;;;4206761;28;20059;-61
2023/05/04 12:15:50;;;;;;;0.80;0.80;;;;;;;;;;4206509;28;20051;-60
2023/05/04 12:18:28;;;;;;;0.70;0.70;;;;;;;;;;4207928;28;20048;-60
2023/05/04 12:20:48;;;;;;;0.70;0.70;;;;;;;;;;4206343;28;20043;-60
2023/05/04 12:23:08;;;;;;;0.70;0.70;;;;;;;;;;4207978;28;20276;-60
2023/05/04 12:25:28;;;;;;;1.30;0.80;;;;;;;;;;4207998;28;20047;-60
2023/05/04 12:27:49;;;;;;;0.70;0.70;;;;;;;;;;4207832;28;20066;-60
2023/05/04 12:30:09;;;;;;;0.80;0.80;;;;;;;;;;4207838;28;20044;-60
2023/05/04 12:32:30;;;;;;;0.80;0.80;;;;;;;;;;4207758;28;20235;-60
2023/05/04 12:34:50;;;;;;;0.70;0.70;;;;;;;;;;4207305;28;20047;-58
2023/05/04 12:37:10;;;;;;;2.70;0.80;;;;;;;;;;4207116;28;20051;-60
2023/05/04 12:39:32;;;;;;;1.20;0.73;;;;;;;;;;4207076;28;20299;-59
2023/05/04 12:41:52;;;;;;;0.73;0.73;;;;;;;;;;4207708;28;20104;-59
2023/05/04 12:44:13;;;;;;;0.88;0.80;;;;;;;;;;4206622;28;20039;-60
2023/05/04 12:46:33;;;;;;;0.70;0.70;;;;;;;;;;4206739;28;20082;-60
2023/05/04 12:48:53;;;;;;;0.70;0.70;;;;;;;;;;4206330;28;20084;-60
2023/05/04 12:51:13;;;;;;;0.80;0.77;;;;;;;;;;4207298;28;20101;-60
2023/05/04 12:53:34;;;;;;;1.05;0.70;;;;;;;;;;4206879;28;20086;-60
2023/05/04 12:55:54;;;;;;;0.70;0.70;;;;;;;;;;4205814;28;20075;-60
2023/05/04 12:58:14;;;;;;;0.70;0.70;;;;;;;;;;4207438;28;20093;-60
2023/05/04 13:00:35;;;;;;;0.60;0.60;;;;;;;;;;4207040;28;20085;-60
2023/05/04 13:02:55;;;;;;;0.70;0.70;;;;;;;;;;4205725;28;20051;-61
2023/05/04 13:05:17;;;;;;;0.70;0.70;;;;;;;;;;4204937;28;20078;-60
2023/05/04 13:07:37;;;;;;;0.82;0.82;;;;;;;;;;4207095;28;20048;-60
2023/05/04 13:09:58;;;;;;;1.25;0.70;;;;;;;;;;4207386;28;20235;-60
2023/05/04 13:12:18;;;;;;;0.80;0.80;;;;;;;;;;4205337;28;20048;-60
2023/05/04 13:14:38;;;;;;;0.70;0.70;;;;;;;;;;4207242;28;20231;-60
2023/05/04 13:17:00;;;;;;;0.60;0.60;;;;;;;;;;4205841;28;20386;-61
2023/05/04 13:19:20;;;;;;;0.60;0.60;;;;;;;;;;4206949;28;20044;-60
2023/05/04 13:21:40;;;;;;;0.70;0.70;;;;;;;;;;4205065;28;20051;-60
2023/05/04 13:24:00;;;;;;;1.00;1.00;;;;;;;;;;4206770;28;20067;-60
2023/05/04 13:26:21;;;;;;;0.70;0.70;;;;;;;;;;4207218;28;20048;-61
2023/05/04 13:28:41;;;;;;;0.77;0.77;;;;;;;;;;4205453;28;20115;-61
2023/05/04 13:31:01;;;;;;;0.85;0.70;;;;;;;;;;4206981;28;20090;-60
2023/05/04 13:33:21;;;;;;;0.60;0.60;;;;;;;;;;4207021;28;20075;-60
2023/05/04 13:35:50;;;;;;;0.70;0.70;;;;;;;;;;4205775;28;20043;-60
2023/05/04 13:38:10;;;;;;;0.60;0.60;;;;;;;;;;4206096;28;20090;-60
2023/05/04 13:40:31;;;;;;;1.60;0.70;;;;;;;;;;4206980;28;20228;-61
2023/05/04 13:42:51;;;;;;;0.70;0.70;;;;;;;;;;4206462;28;20082;-61
2023/05/04 13:45:11;;;;;;;0.82;0.60;;;;;;;;;;4206918;28;20055;-61
2023/05/04 13:47:35;;;;;;;1.30;0.70;;;;;;;;;;4205997;28;20272;-60
2023/05/04 13:49:55;;;;;;;0.70;0.70;;;;;;;;;;4206931;28;20231;-60
2023/05/04 13:52:15;;;;;;;0.70;0.70;;;;;;;;;;4206820;28;20054;-60
2023/05/04 13:54:36;;;;;;;1.40;0.70;;;;;;;;;;4206924;28;20043;-60
2023/05/04 13:56:56;;;;;;;0.70;0.70;;;;;;;;;;4206783;28;20051;-60
2023/05/04 13:59:16;;;;;;;0.60;0.60;;;;;;;;;;4206562;28;20236;-60
2023/05/04 14:01:36;;;;;;;1.92;0.70;;;;;;;;;;4206672;28;20304;-61
2023/05/04 14:03:56;;;;;;;0.70;0.70;;;;;;;;;;4206651;28;20101;-60
2023/05/04 14:06:16;;;;;;;3.50;0.70;;;;;;;;;;4206607;28;20094;-61
2023/05/04 14:08:37;;;;;;;0.60;0.60;;;;;;;;;;4206610;28;20052;-61